Time;durP1;ratioP1;P1;durP2;ratioP2;P2;SDS_P1;SDS_P2;PMS_P1;PMS_P2;Temp;Humidity;BMP_temperature;BMP_pressure;BME280_temperature;BME280_humidity;BME280_pressure;Samples;Min_cycle;Max_cycle;Signal;HPM_P1;HPM_P2
2021/09/21 00:01:18;;;;;;;11.88;8.25;;;;;;;13.07;100.00;93524.09;5052126;28;20099;-80
2021/09/21 00:03:44;;;;;;;11.85;8.15;;;;;;;13.13;100.00;93532.72;5051778;28;20493;-81
2021/09/21 00:06:11;;;;;;;11.43;7.85;;;;;;;13.04;100.00;93519.34;5051533;28;20391;-81
2021/09/21 00:08:38;;;;;;;9.35;6.78;;;;;;;12.95;100.00;93509.34;5068646;28;20048;-81
2021/09/21 00:11:06;;;;;;;9.35;6.80;;;;;;;13.09;100.00;93525.44;5058637;28;20048;-81
2021/09/21 00:13:34;;;;;;;9.25;6.68;;;;;;;13.06;100.00;93530.25;5051818;28;20536;-81
2021/09/21 00:16:01;;;;;;;8.25;6.05;;;;;;;13.10;100.00;93531.38;5051464;28;20045;-81
2021/09/21 00:18:30;;;;;;;8.13;6.10;;;;;;;13.04;100.00;93524.50;5051471;28;20049;-81
2021/09/21 00:20:57;;;;;;;8.98;6.97;;;;;;;12.88;100.00;93502.69;5051604;28;20060;-81
2021/09/21 00:23:24;;;;;;;9.40;6.20;;;;;;;12.98;100.00;93528.75;5051325;28;20521;-81
2021/09/21 00:25:51;;;;;;;12.25;7.10;;;;;;;13.00;100.00;93525.97;5051521;28;20048;-81
2021/09/21 00:28:17;;;;;;;8.30;5.75;;;;;;;12.94;100.00;93514.69;5051344;28;20049;-81
2021/09/21 00:30:48;;;;;;;9.90;6.25;;;;;;;13.06;100.00;93527.66;5051228;28;20049;-81
2021/09/21 00:33:18;;;;;;;9.32;6.38;;;;;;;12.99;100.00;93521.78;5051435;28;20056;-81
2021/09/21 00:35:48;;;;;;;9.60;6.20;;;;;;;12.79;100.00;93512.50;5050985;28;20045;-81
2021/09/21 00:38:17;;;;;;;10.00;6.45;;;;;;;12.62;100.00;93515.66;5051242;28;20052;-81
2021/09/21 00:40:45;;;;;;;8.88;6.80;;;;;;;12.34;100.00;93513.53;5050916;28;20060;-80
2021/09/21 00:43:12;;;;;;;7.60;5.88;;;;;;;12.28;100.00;93510.03;5051263;28;20053;-81
2021/09/21 00:45:40;;;;;;;9.00;6.70;;;;;;;12.31;100.00;93517.31;5051230;28;20049;-81
2021/09/21 00:48:07;;;;;;;8.85;6.38;;;;;;;12.46;100.00;93511.06;5050985;28;20603;-81
2021/09/21 00:50:37;;;;;;;9.18;6.55;;;;;;;12.54;100.00;93510.75;5051101;28;20076;-81
2021/09/21 00:53:05;;;;;;;8.32;5.93;;;;;;;12.59;100.00;93507.56;5050816;28;20053;-81
2021/09/21 00:55:33;;;;;;;8.73;6.47;;;;;;;12.59;100.00;93508.34;5050877;28;20517;-81
2021/09/21 00:58:00;;;;;;;9.80;6.93;;;;;;;12.60;100.00;93502.19;5050631;28;20049;-81
2021/09/21 01:00:27;;;;;;;8.00;5.90;;;;;;;12.46;100.00;93478.38;5050662;28;20939;-81
2021/09/21 01:02:54;;;;;;;7.82;5.97;;;;;;;12.66;100.00;93503.13;5050930;28;20056;-80
2021/09/21 01:05:21;;;;;;;8.10;6.00;;;;;;;12.77;100.00;93501.63;5050580;28;20071;-81
2021/09/21 01:07:47;;;;;;;7.55;5.57;;;;;;;12.84;100.00;93499.75;5060096;28;20049;-81
2021/09/21 01:10:18;;;;;;;9.07;6.10;;;;;;;12.59;100.00;93482.56;5064190;28;20057;-81
2021/09/21 01:12:46;;;;;;;8.93;5.93;;;;;;;12.75;100.00;93499.25;5058451;28;20532;-80
2021/09/21 01:15:14;;;;;;;9.18;5.93;;;;;;;12.76;100.00;93493.09;5070838;28;20061;-80
2021/09/21 01:17:42;;;;;;;7.28;5.60;;;;;;;12.79;100.00;93489.31;5070384;28;20044;-80
2021/09/21 01:20:11;;;;;;;8.65;5.82;;;;;;;12.77;100.00;93486.94;5070479;28;20058;-81
2021/09/21 01:22:39;;;;;;;8.77;6.30;;;;;;;12.72;100.00;93481.63;5070584;28;20059;-80
2021/09/21 01:25:08;;;;;;;8.65;5.90;;;;;;;12.70;100.00;93486.22;5070480;28;20041;-80
2021/09/21 01:27:35;;;;;;;10.07;6.20;;;;;;;12.51;100.00;93491.38;5070617;28;20048;-80
2021/09/21 01:30:02;;;;;;;8.25;5.97;;;;;;;12.28;100.00;93492.78;5070254;28;20098;-80
2021/09/21 01:32:29;;;;;;;9.02;6.65;;;;;;;12.31;100.00;93499.28;5069810;28;20052;-80
2021/09/21 01:34:56;;;;;;;9.63;6.70;;;;;;;12.03;100.00;93508.22;5070208;28;20052;-80
2021/09/21 01:37:24;;;;;;;9.60;7.10;;;;;;;11.89;100.00;93502.41;5069965;28;20050;-80
2021/09/21 01:39:52;;;;;;;9.25;6.97;;;;;;;11.96;100.00;93492.84;5069240;28;20067;-81
2021/09/21 01:42:19;;;;;;;9.57;6.93;;;;;;;12.03;100.00;93496.16;5070352;28;20047;-81
2021/09/21 01:44:46;;;;;;;8.57;6.20;;;;;;;12.09;100.00;93491.19;5069700;28;20056;-81
2021/09/21 01:47:15;;;;;;;9.18;6.13;;;;;;;11.99;100.00;93473.63;5069782;28;20048;-81
2021/09/21 01:49:50;;;;;;;8.65;6.43;;;;;;;12.13;100.00;93492.34;5069689;28;20051;-81
2021/09/21 01:52:20;;;;;;;8.60;6.20;;;;;;;12.13;100.00;93489.78;5069741;28;20547;-81
2021/09/21 01:55:02;;;;;;;10.10;7.35;;;;;;;12.08;100.00;93487.81;5069918;28;20110;-81
2021/09/21 02:00:15;;;;;;;8.43;6.35;;;;;;;11.94;100.00;93476.03;5069541;28;20198;-80
2021/09/21 02:02:42;;;;;;;9.98;7.63;;;;;;;12.05;100.00;93493.41;5069747;28;20048;-81
2021/09/21 02:05:09;;;;;;;9.73;7.15;;;;;;;11.98;100.00;93496.00;5069568;28;20052;-81
2021/09/21 02:07:36;;;;;;;10.10;6.65;;;;;;;11.98;100.00;93492.63;5069300;28;20052;-81
2021/09/21 02:10:04;;;;;;;10.13;7.20;;;;;;;11.89;100.00;93498.06;5064727;28;20041;-80
2021/09/21 02:12:32;;;;;;;9.48;6.82;;;;;;;11.71;100.00;93472.25;5049552;28;20049;-80
2021/09/21 02:15:00;;;;;;;9.93;7.15;;;;;;;11.60;100.00;93499.44;5049575;28;20049;-81
2021/09/21 02:17:28;;;;;;;9.18;6.95;;;;;;;11.27;100.00;93506.38;5049210;28;20565;-80
2021/09/21 02:19:55;;;;;;;9.43;7.15;;;;;;;11.04;100.00;93514.59;5049118;28;20055;-80
2021/09/21 02:22:22;;;;;;;8.90;6.32;;;;;;;11.00;100.00;93511.63;5049088;28;20060;-80
2021/09/21 02:24:49;;;;;;;11.15;7.93;;;;;;;11.01;100.00;93513.22;5049264;28;20150;-80
2021/09/21 02:27:16;;;;;;;10.50;7.35;;;;;;;10.99;100.00;93514.41;5049144;28;20102;-80
2021/09/21 02:29:44;;;;;;;11.20;7.13;;;;;;;10.85;100.00;93517.03;5049446;28;20453;-80
2021/09/21 02:32:11;;;;;;;10.00;7.38;;;;;;;10.79;100.00;93512.72;5049228;28;20049;-80
2021/09/21 02:34:40;;;;;;;12.27;7.68;;;;;;;10.73;100.00;93511.72;5049267;28;20414;-80
2021/09/21 02:37:07;;;;;;;11.00;7.38;;;;;;;10.34;100.00;93473.09;5048958;28;20049;-80
2021/09/21 02:39:34;;;;;;;11.25;7.65;;;;;;;10.52;100.00;93497.38;5049237;28;20089;-81
2021/09/21 02:42:01;;;;;;;10.73;7.60;;;;;;;10.79;100.00;93498.06;5048940;28;20044;-81
2021/09/21 02:44:27;;;;;;;10.68;7.68;;;;;;;11.00;100.00;93503.13;5048714;28;20054;-81
2021/09/21 02:46:56;;;;;;;10.95;7.70;;;;;;;10.82;100.00;93510.53;5048988;28;20048;-81
2021/09/21 02:49:22;;;;;;;24.92;15.98;;;;;;;10.59;100.00;93497.38;5049271;28;20509;-81
2021/09/21 02:51:49;;;;;;;10.85;7.57;;;;;;;10.91;100.00;93515.44;5052517;28;20103;-81
2021/09/21 02:54:16;;;;;;;13.60;9.45;;;;;;;10.99;100.00;93510.06;5053173;28;20052;-81
2021/09/21 02:56:43;;;;;;;11.93;7.97;;;;;;;11.00;100.00;93515.97;5053381;28;20044;-81
2021/09/21 02:59:10;;;;;;;11.23;8.00;;;;;;;10.98;100.00;93520.53;5052759;28;20585;-81
2021/09/21 03:01:36;;;;;;;11.02;8.32;;;;;;;11.03;100.00;93531.81;5053219;28;20045;-81
2021/09/21 03:04:11;;;;;;;8.88;6.53;;;;;;;11.08;100.00;93528.63;5052952;28;20055;-81
2021/09/21 03:06:44;;;;;;;9.45;6.85;;;;;;;10.98;100.00;93541.91;5053475;28;20064;-81
2021/09/21 03:09:15;;;;;;;10.20;7.30;;;;;;;10.96;100.00;93542.09;5072847;28;20055;-81
2021/09/21 03:11:44;;;;;;;9.48;7.38;;;;;;;10.88;100.00;93551.81;5054376;28;20525;-81
2021/09/21 03:17:09;;;;;;;10.45;7.40;;;;;;;10.66;100.00;93559.78;5052663;28;20064;-80
2021/09/21 03:19:38;;;;;;;7.82;5.95;;;;;;;10.47;100.00;93559.63;5052467;28;20497;-81
2021/09/21 03:22:04;;;;;;;9.52;6.75;;;;;;;10.63;100.00;93562.75;5052284;28;20521;-81
2021/09/21 03:24:33;;;;;;;10.55;7.15;;;;;;;10.53;100.00;93552.88;5052600;28;20051;-81
2021/09/21 03:27:00;;;;;;;17.60;12.23;;;;;;;10.36;100.00;93547.34;5052719;28;20044;-80
2021/09/21 03:29:28;;;;;;;27.48;20.48;;;;;;;10.37;100.00;93566.91;5052722;28;20045;-80
2021/09/21 03:31:55;;;;;;;13.70;10.40;;;;;;;10.36;100.00;93576.38;5052326;28;20091;-80
2021/09/21 03:34:22;;;;;;;15.57;10.60;;;;;;;10.56;100.00;93562.78;5052507;28;20053;-79
2021/09/21 03:36:50;;;;;;;11.38;8.82;;;;;;;10.58;100.00;93583.09;5052159;28;20072;-81
2021/09/21 03:39:17;;;;;;;8.68;6.20;;;;;;;10.67;100.00;93566.50;5052407;28;20052;-79
2021/09/21 03:41:44;;;;;;;8.80;6.18;;;;;;;10.67;100.00;93571.63;5052259;28;20099;-80
2021/09/21 03:44:11;;;;;;;8.32;5.80;;;;;;;10.50;100.00;93561.78;5011415;28;20049;-79
2021/09/21 03:46:38;;;;;;;7.22;5.10;;;;;;;10.50;100.00;93584.09;5032174;28;20056;-79
2021/09/21 03:49:04;;;;;;;7.85;5.40;;;;;;;10.14;100.00;93571.47;5032178;28;20082;-79
2021/09/21 03:51:31;;;;;;;7.55;4.70;;;;;;;10.27;100.00;93580.13;5031880;28;20045;-79
2021/09/21 03:54:00;;;;;;;8.35;5.63;;;;;;;10.08;100.00;93563.75;5032062;28;20048;-79
2021/09/21 03:56:26;;;;;;;7.40;4.53;;;;;;;10.12;100.00;93564.94;5032356;28;20097;-80
2021/09/21 03:58:53;;;;;;;10.05;5.47;;;;;;;10.00;100.00;93575.03;5032007;28;20081;-80
2021/09/21 04:01:20;;;;;;;8.45;5.03;;;;;;;9.79;100.00;93573.41;5043072;28;20063;-80
2021/09/21 04:03:47;;;;;;;6.75;4.60;;;;;;;9.83;100.00;93577.97;5050882;28;20052;-80
2021/09/21 04:06:14;;;;;;;11.20;7.13;;;;;;;9.48;100.00;93566.06;5051718;28;20052;-80
2021/09/21 04:08:41;;;;;;;10.52;6.45;;;;;;;9.48;100.00;93567.81;5051637;28;20044;-80
2021/09/21 04:11:09;;;;;;;10.02;6.45;;;;;;;9.56;100.00;93575.34;5051476;28;20056;-80
2021/09/21 04:13:36;;;;;;;8.70;5.82;;;;;;;9.71;100.00;93577.75;5051539;28;20044;-80
2021/09/21 04:16:03;;;;;;;8.48;5.63;;;;;;;9.87;100.00;93580.94;5052033;28;20394;-80
2021/09/21 04:18:30;;;;;;;6.43;4.40;;;;;;;9.82;100.00;93585.84;5051255;28;20045;-80
2021/09/21 04:20:57;;;;;;;8.52;5.03;;;;;;;9.56;100.00;93562.53;5050812;28;20056;-79
2021/09/21 04:23:24;;;;;;;7.05;4.95;;;;;;;9.43;100.00;93563.28;5051711;28;20052;-80
2021/09/21 04:25:51;;;;;;;19.35;11.35;;;;;;;9.48;100.00;93575.50;5051272;28;20049;-80
2021/09/21 04:28:20;;;;;;;16.10;9.45;;;;;;;9.46;100.00;93569.78;5051292;28;20044;-80
2021/09/21 04:30:48;;;;;;;22.45;11.65;;;;;;;9.55;100.00;93570.41;5051645;28;20168;-80
2021/09/21 04:33:15;;;;;;;17.92;10.63;;;;;;;9.58;100.00;93573.38;5051354;28;20045;-80
2021/09/21 04:35:42;;;;;;;6.60;4.75;;;;;;;9.67;100.00;93586.81;5051351;28;20505;-80
2021/09/21 04:38:09;;;;;;;7.38;5.50;;;;;;;9.80;100.00;93573.22;5051656;28;20060;-80
2021/09/21 04:40:36;;;;;;;6.05;4.57;;;;;;;9.97;100.00;93588.22;5051588;28;20056;-81
2021/09/21 04:43:03;;;;;;;6.28;4.75;;;;;;;9.88;100.00;93593.56;5051126;28;20045;-80
2021/09/21 04:45:32;;;;;;;8.10;5.03;;;;;;;9.83;100.00;93588.22;5051827;28;20465;-81
2021/09/21 04:47:59;;;;;;;7.22;5.10;;;;;;;9.96;100.00;93604.63;5051637;28;20045;-80
2021/09/21 04:50:26;;;;;;;8.00;5.47;;;;;;;9.93;100.00;93599.88;5051243;28;20057;-81
2021/09/21 04:52:52;;;;;;;7.65;5.55;;;;;;;9.71;100.00;93598.25;5051069;28;20053;-81
2021/09/21 05:07:59;;;;;;;8.38;5.40;;;;;;;10.71;100.00;93619.06;5147457;27;20351;-80
2021/09/21 05:10:26;;;;;;;5.97;4.53;;;;;;;10.75;100.00;93612.53;5148284;27;20047;-80
2021/09/21 05:12:53;;;;;;;7.68;5.07;;;;;;;10.68;100.00;93604.84;5148075;27;20051;-79
2021/09/21 05:15:20;;;;;;;8.60;5.57;;;;;;;10.86;100.00;93611.13;5147807;27;20054;-79
2021/09/21 05:17:47;;;;;;;7.25;5.60;;;;;;;10.75;100.00;93624.59;5148305;27;20413;-79
2021/09/21 05:20:14;;;;;;;6.03;4.20;;;;;;;10.53;100.00;93623.03;5147584;27;20562;-80
2021/09/21 05:22:41;;;;;;;6.45;4.60;;;;;;;10.43;100.00;93626.00;5147751;27;20490;-80
2021/09/21 05:25:11;;;;;;;6.25;4.80;;;;;;;10.45;100.00;93628.38;5148054;27;20051;-80
2021/09/21 05:27:39;;;;;;;7.43;4.68;;;;;;;10.23;100.00;93632.88;5148419;27;20093;-79
2021/09/21 05:30:07;;;;;;;5.93;5.25;;;;;;;10.13;100.00;93628.94;5148520;27;20047;-80
2021/09/21 05:32:33;;;;;;;6.80;4.85;;;;;;;10.16;100.00;93623.41;5148197;27;20050;-78
2021/09/21 05:35:00;;;;;;;6.18;4.60;;;;;;;10.14;100.00;93637.44;5147524;27;20054;-78
2021/09/21 05:37:30;;;;;;;5.97;4.47;;;;;;;10.25;100.00;93651.44;5147663;27;20047;-79
2021/09/21 05:39:56;;;;;;;7.32;4.63;;;;;;;10.30;100.00;93651.66;5147624;27;20054;-79
2021/09/21 05:42:25;;;;;;;5.75;4.63;;;;;;;10.33;100.00;93640.19;5147729;27;20051;-80
2021/09/21 05:44:53;;;;;;;6.82;4.75;;;;;;;10.48;100.00;93663.13;5147523;27;20047;-79
2021/09/21 05:47:20;;;;;;;6.93;5.10;;;;;;;10.51;100.00;93660.97;5147582;27;20039;-79
2021/09/21 05:49:46;;;;;;;6.32;4.47;;;;;;;10.66;100.00;93670.25;5147825;27;20448;-79
2021/09/21 05:52:13;;;;;;;6.13;4.50;;;;;;;10.70;100.00;93674.03;5147589;27;20100;-80
2021/09/21 05:54:40;;;;;;;6.35;4.22;;;;;;;10.65;100.00;93666.13;5147796;27;20383;-79
2021/09/21 05:57:07;;;;;;;6.97;5.22;;;;;;;10.74;100.00;93648.72;5147128;27;20050;-80
2021/09/21 05:59:35;;;;;;;5.78;4.15;;;;;;;10.59;100.00;93664.34;5146960;27;20499;-79
2021/09/21 06:02:02;;;;;;;5.90;4.85;;;;;;;10.80;100.00;93665.91;5147234;27;20051;-80
2021/09/21 06:04:29;;;;;;;5.03;4.22;;;;;;;10.79;100.00;93661.75;5146588;27;20047;-79
2021/09/21 06:06:56;;;;;;;6.20;4.40;;;;;;;10.83;100.00;93670.63;5140997;27;20403;-79
2021/09/21 06:09:23;;;;;;;6.43;4.43;;;;;;;10.82;100.00;93666.47;5130795;27;20078;-79
2021/09/21 06:11:50;;;;;;;5.70;4.47;;;;;;;11.02;100.00;93671.59;5133164;27;20066;-78
2021/09/21 06:14:17;;;;;;;5.82;4.35;;;;;;;10.95;98.35;93675.97;5132682;27;20058;-78
2021/09/21 06:16:45;;;;;;;4.80;4.20;;;;;;;11.09;99.86;93682.66;5132728;27;20495;-79
2021/09/21 06:19:12;;;;;;;5.53;4.07;;;;;;;11.28;98.52;93682.00;5132823;27;20055;-79
2021/09/21 06:21:39;;;;;;;6.20;4.57;;;;;;;11.33;99.68;93679.63;5132760;27;20513;-78
2021/09/21 06:24:06;;;;;;;5.68;4.40;;;;;;;11.04;98.99;93689.38;5132733;27;20047;-78
2021/09/21 06:26:33;;;;;;;48.78;22.45;;;;;;;11.08;99.62;93686.22;5132786;27;20058;-78
2021/09/21 06:29:00;;;;;;;7.75;5.88;;;;;;;11.23;99.18;93690.34;5132653;27;20521;-79
2021/09/21 06:31:27;;;;;;;5.35;4.25;;;;;;;11.38;98.16;93694.47;5132557;27;20043;-79
2021/09/21 06:33:55;;;;;;;6.07;4.57;;;;;;;11.22;98.19;93699.84;5132338;27;20047;-79
2021/09/21 06:36:22;;;;;;;6.45;5.35;;;;;;;11.12;97.97;93693.53;5132371;27;20082;-78
2021/09/21 06:38:49;;;;;;;7.90;6.03;;;;;;;11.02;98.57;93691.38;5132649;27;20055;-79
2021/09/21 06:41:15;;;;;;;7.20;4.63;;;;;;;11.00;98.12;93689.00;5132190;27;20043;-78
2021/09/21 06:43:42;;;;;;;6.63;4.90;;;;;;;11.18;98.13;93690.97;5132555;27;20092;-79
2021/09/21 06:46:09;;;;;;;6.35;4.80;;;;;;;11.09;98.25;93689.59;5132143;27;20051;-78
2021/09/21 06:48:39;;;;;;;5.32;4.47;;;;;;;11.27;97.28;93688.97;5132054;27;20099;-78
2021/09/21 06:51:08;;;;;;;5.55;4.75;;;;;;;11.34;96.69;93700.00;5132100;27;20047;-78
2021/09/21 06:53:35;;;;;;;6.03;5.13;;;;;;;11.39;96.03;93685.75;5131960;27;20035;-79
2021/09/21 06:56:02;;;;;;;5.15;4.20;;;;;;;11.47;95.27;93691.47;5132097;27;20074;-78
2021/09/21 06:58:29;;;;;;;6.78;4.35;;;;;;;11.62;94.20;93701.50;5132310;27;20047;-79
2021/09/21 07:00:56;;;;;;;5.72;4.53;;;;;;;11.46;94.83;93701.97;5131838;27;20043;-77
2021/09/21 07:03:23;;;;;;;5.38;4.38;;;;;;;11.64;96.88;93709.03;5132305;27;20043;-78
2021/09/21 07:05:50;;;;;;;5.53;4.10;;;;;;;11.84;95.08;93703.81;5132015;27;20051;-79
2021/09/21 07:08:19;;;;;;;9.27;6.05;;;;;;;11.99;92.70;93718.22;5131858;27;20087;-79
2021/09/21 07:10:45;;;;;;;7.45;5.13;;;;;;;11.96;94.09;93703.16;5131870;27;20045;-78
2021/09/21 07:13:12;;;;;;;7.47;5.53;;;;;;;12.04;94.34;93705.53;5131741;27;20051;-79
2021/09/21 07:15:39;;;;;;;6.88;4.50;;;;;;;12.11;91.80;93710.63;5132013;27;20438;-78
2021/09/21 07:18:06;;;;;;;6.07;4.63;;;;;;;12.38;91.23;93706.13;5131626;27;20058;-79
2021/09/21 07:20:33;;;;;;;5.25;3.92;;;;;;;12.43;90.63;93710.66;5130739;27;20742;-79
2021/09/21 07:22:59;;;;;;;6.22;4.80;;;;;;;12.23;89.15;93708.19;5131853;27;20402;-78
2021/09/21 07:25:28;;;;;;;6.00;4.60;;;;;;;12.33;90.65;93710.31;5131726;27;20046;-79
2021/09/21 07:27:57;;;;;;;5.35;4.65;;;;;;;12.29;90.80;93712.53;5131184;27;20047;-79
2021/09/21 07:30:23;;;;;;;6.85;4.57;;;;;;;12.40;90.01;93726.50;5131706;27;20043;-79
2021/09/21 07:32:50;;;;;;;6.68;5.35;;;;;;;12.15;90.01;93716.97;5131344;27;20548;-78
2021/09/21 07:35:17;;;;;;;5.15;4.32;;;;;;;12.49;89.61;93738.16;5131354;27;20441;-79
2021/09/21 07:37:44;;;;;;;6.07;4.82;;;;;;;12.74;89.95;93742.56;5131442;27;20059;-79
2021/09/21 07:40:12;;;;;;;5.38;4.20;;;;;;;12.77;86.40;93754.25;5131473;27;20043;-79
2021/09/21 07:42:40;;;;;;;4.30;3.55;;;;;;;12.95;86.60;93754.28;5131510;27;20108;-79
2021/09/21 07:45:09;;;;;;;4.82;3.88;;;;;;;12.89;86.35;93756.91;5131401;27;20093;-79
2021/09/21 07:47:36;;;;;;;5.07;3.92;;;;;;;12.99;86.22;93761.59;5131172;27;20051;-78
2021/09/21 07:50:04;;;;;;;5.43;4.13;;;;;;;13.19;87.14;93743.41;5130975;27;20043;-80
2021/09/21 07:52:31;;;;;;;6.38;4.47;;;;;;;13.44;87.21;93756.25;5130982;27;20043;-79
2021/09/21 07:54:58;;;;;;;5.68;4.53;;;;;;;13.75;86.67;93758.97;5130833;27;20043;-80
2021/09/21 07:57:25;;;;;;;5.13;4.00;;;;;;;13.96;85.58;93764.66;5097284;27;20047;-80
2021/09/21 07:59:54;;;;;;;4.88;3.50;;;;;;;14.09;83.29;93781.81;5090243;28;20056;-78
2021/09/21 08:02:21;;;;;;;4.30;3.15;;;;;;;14.51;82.85;93771.56;5090356;28;20079;-80
2021/09/21 08:04:48;;;;;;;4.57;3.72;;;;;;;14.05;82.21;93775.50;5090374;28;20094;-78
2021/09/21 08:07:14;;;;;;;4.82;3.80;;;;;;;13.98;85.13;93778.94;5090142;28;21126;-80
2021/09/21 08:09:44;;;;;;;5.28;3.97;;;;;;;14.59;83.40;93773.03;5090159;28;20047;-80
2021/09/21 08:12:11;;;;;;;6.30;4.45;;;;;;;14.98;82.32;93777.88;5090173;28;20055;-79
2021/09/21 08:14:38;;;;;;;5.43;4.43;;;;;;;15.16;80.91;93771.81;5089914;28;20044;-80
2021/09/21 08:17:08;;;;;;;5.65;4.03;;;;;;;15.19;80.40;93778.34;5090062;28;20138;-79
2021/09/21 08:19:35;;;;;;;5.25;4.20;;;;;;;14.68;83.44;93774.28;5089681;28;20081;-79
2021/09/21 08:22:02;;;;;;;5.28;4.30;;;;;;;14.66;82.42;93773.72;5089988;28;20044;-77
2021/09/21 08:24:29;;;;;;;5.47;4.38;;;;;;;14.10;84.76;93770.47;5089850;28;20044;-78
2021/09/21 08:26:56;;;;;;;5.00;4.22;;;;;;;14.09;84.72;93772.28;5089247;28;20044;-78
2021/09/21 08:29:23;;;;;;;5.50;4.45;;;;;;;14.00;85.34;93765.81;5075716;28;20049;-77
2021/09/21 08:31:49;;;;;;;4.97;3.85;;;;;;;14.18;83.53;93772.78;5067760;28;20055;-79
2021/09/21 08:34:18;;;;;;;6.15;4.72;;;;;;;14.20;84.22;93752.66;5069033;28;20052;-80
2021/09/21 08:36:45;;;;;;;5.05;3.40;;;;;;;14.19;83.00;93761.44;5069473;28;20052;-79
2021/09/21 08:39:11;;;;;;;4.60;3.58;;;;;;;13.96;81.04;93764.66;5069502;28;20053;-79
2021/09/21 08:41:39;;;;;;;5.22;3.85;;;;;;;14.03;82.62;93755.84;5069314;28;20044;-79
2021/09/21 08:44:06;;;;;;;4.78;3.78;;;;;;;13.94;82.84;93756.38;5069405;28;20048;-79
2021/09/21 08:46:33;;;;;;;6.53;3.95;;;;;;;14.24;80.59;93760.75;5074874;28;20488;-79
2021/09/21 08:49:00;;;;;;;4.22;3.25;;;;;;;14.32;81.59;93762.25;5087528;28;20101;-79
2021/09/21 08:51:28;;;;;;;4.38;3.60;;;;;;;14.19;82.55;93747.69;5088709;28;20040;-79
2021/09/21 08:53:55;;;;;;;6.00;4.75;;;;;;;14.64;81.82;93733.59;5100311;28;20393;-79
2021/09/21 08:56:22;;;;;;;4.85;3.70;;;;;;;14.96;80.60;93751.44;5088878;28;20086;-79
2021/09/21 08:58:59;;;;;;;4.72;3.28;;;;;;;15.42;78.36;93756.84;5089279;28;20044;-79
2021/09/21 09:01:37;;;;;;;5.15;3.95;;;;;;;15.60;77.67;93766.28;5089308;28;20442;-79
2021/09/21 09:04:04;;;;;;;4.30;3.60;;;;;;;15.66;74.79;93769.00;5089537;28;20097;-80
2021/09/21 09:06:42;;;;;;;4.25;3.28;;;;;;;16.10;76.29;93769.38;5089180;28;20056;-80
2021/09/21 09:09:12;;;;;;;4.03;2.88;;;;;;;15.69;77.21;93747.81;5089310;28;20097;-79
2021/09/21 09:11:38;;;;;;;4.03;3.20;;;;;;;16.00;75.10;93774.38;5088990;28;20078;-80
2021/09/21 09:14:05;;;;;;;4.70;3.45;;;;;;;15.79;73.76;93770.56;5088946;28;20044;-79
2021/09/21 09:16:34;;;;;;;4.32;3.33;;;;;;;15.80;76.59;93744.44;5088946;28;20117;-79
2021/09/21 09:19:03;;;;;;;3.75;3.20;;;;;;;15.40;73.86;93766.66;5089153;28;20052;-79
2021/09/21 09:21:33;;;;;;;3.55;2.80;;;;;;;15.38;77.39;93763.50;5089207;28;20052;-80
2021/09/21 09:24:01;;;;;;;3.20;2.47;;;;;;;15.92;74.56;93770.28;5088871;28;20186;-79
2021/09/21 09:26:31;;;;;;;4.47;2.30;;;;;;;16.39;73.16;93773.81;5088785;28;20044;-79
2021/09/21 09:28:58;;;;;;;3.58;2.53;;;;;;;16.64;71.47;93764.88;5088728;28;20059;-81
2021/09/21 09:31:27;;;;;;;2.97;1.88;;;;;;;16.16;69.31;93784.00;5089056;28;20048;-80
2021/09/21 09:34:05;;;;;;;4.45;2.00;;;;;;;16.83;73.15;93776.63;5088938;28;20044;-81
2021/09/21 09:36:43;;;;;;;3.88;2.00;;;;;;;17.18;70.72;93782.63;5088986;28;20052;-80
2021/09/21 09:39:10;;;;;;;2.92;1.88;;;;;;;16.90;68.48;93786.84;5088899;28;20051;-80
2021/09/21 09:41:38;;;;;;;2.58;1.80;;;;;;;16.90;68.35;93791.25;5088545;28;20049;-80
2021/09/21 09:44:07;;;;;;;2.70;1.95;;;;;;;17.26;66.93;93794.44;5091948;28;20633;-81
2021/09/21 09:46:45;;;;;;;2.90;1.85;;;;;;;17.41;66.83;93785.31;5092687;28;20051;-80
2021/09/21 09:49:12;;;;;;;2.67;1.70;;;;;;;17.88;65.94;93786.72;5092234;28;20048;-81
2021/09/21 09:51:47;;;;;;;2.67;1.80;;;;;;;17.61;64.75;93779.63;5092617;28;20090;-80
2021/09/21 09:54:15;;;;;;;2.95;2.00;;;;;;;16.85;66.59;93791.19;5092196;28;20059;-80
2021/09/21 09:56:43;;;;;;;2.30;1.42;;;;;;;17.27;65.97;93783.03;5092044;28;20123;-81
2021/09/21 09:59:10;;;;;;;2.13;1.40;;;;;;;16.37;68.81;93794.78;5092261;28;20055;-80
2021/09/21 10:01:38;;;;;;;2.10;1.40;;;;;;;15.91;70.25;93781.69;5092158;28;20455;-81
2021/09/21 10:04:05;;;;;;;2.47;1.75;;;;;;;16.47;69.72;93757.84;5092302;28;20052;-81
2021/09/21 10:06:32;;;;;;;2.60;1.67;;;;;;;16.48;69.06;93787.94;5092408;28;20059;-80
2021/09/21 10:09:02;;;;;;;2.78;1.80;;;;;;;16.53;70.19;93780.25;5092222;28;20097;-80
2021/09/21 10:11:30;;;;;;;2.50;1.20;;;;;;;16.25;66.07;93781.84;5092422;28;20155;-79
2021/09/21 10:13:59;;;;;;;2.60;1.73;;;;;;;16.11;68.44;93760.59;5092270;28;20047;-80
2021/09/21 10:16:26;;;;;;;2.72;1.80;;;;;;;15.88;69.76;93775.16;5092339;28;20470;-81
2021/09/21 10:18:57;;;;;;;3.13;1.90;;;;;;;15.95;70.89;93758.72;5091728;28;20656;-80
2021/09/21 10:21:34;;;;;;;2.85;1.92;;;;;;;15.74;71.04;93779.00;5106694;28;20054;-80
2021/09/21 10:24:04;;;;;;;2.45;1.70;;;;;;;16.28;72.00;93778.78;5110965;28;20496;-81
2021/09/21 10:26:33;;;;;;;2.35;1.50;;;;;;;16.86;69.15;93759.03;5112042;28;20139;-81
2021/09/21 10:29:00;;;;;;;2.85;1.80;;;;;;;17.36;67.85;93762.66;5112024;28;20047;-81
2021/09/21 10:31:29;;;;;;;2.95;1.80;;;;;;;17.42;67.33;93768.72;5111917;28;20048;-80
2021/09/21 10:33:56;;;;;;;2.53;1.63;;;;;;;17.32;65.70;93756.38;5111922;28;20071;-81
2021/09/21 10:36:29;;;;;;;2.95;1.80;;;;;;;17.81;64.61;93776.50;5111930;28;20101;-81
2021/09/21 10:38:59;;;;;;;2.45;1.75;;;;;;;17.14;65.37;93770.38;5111909;28;20052;-79
2021/09/21 10:41:28;;;;;;;3.10;1.98;;;;;;;16.79;67.63;93766.94;5112197;28;20044;-80
2021/09/21 10:44:00;;;;;;;3.25;1.90;;;;;;;16.57;69.60;93767.63;5111557;28;20044;-80
2021/09/21 10:46:27;;;;;;;3.63;1.80;;;;;;;16.74;69.39;93754.69;5086978;28;20048;-82
2021/09/21 10:49:01;;;;;;;3.10;2.15;;;;;;;16.88;66.76;93746.59;5079202;28;20440;-81
2021/09/21 10:51:30;;;;;;;2.83;1.95;;;;;;;17.34;67.77;93764.69;5080554;28;20588;-81
2021/09/21 10:54:03;;;;;;;4.25;2.20;;;;;;;17.66;66.98;93745.91;5081642;28;20067;-82
2021/09/21 10:56:32;;;;;;;3.15;2.20;;;;;;;17.77;67.15;93745.00;5080894;28;20052;-82
2021/09/21 10:58:59;;;;;;;3.10;2.00;;;;;;;17.54;65.87;93764.19;5081630;28;20413;-80
2021/09/21 11:01:26;;;;;;;2.60;1.70;;;;;;;16.66;66.85;93744.72;5089129;28;20109;-81
2021/09/21 11:03:53;;;;;;;3.60;2.30;;;;;;;16.47;70.03;93729.34;5091101;28;20066;-80
2021/09/21 11:06:20;;;;;;;3.90;2.80;;;;;;;16.63;69.90;93704.47;5085519;28;20056;-81
2021/09/21 11:08:48;;;;;;;2.75;2.13;;;;;;;17.13;68.44;93746.22;5091962;28;20425;-81
2021/09/21 11:11:16;;;;;;;2.70;1.85;;;;;;;17.57;66.80;93726.56;5091144;28;20398;-81
2021/09/21 11:13:44;;;;;;;2.75;1.63;;;;;;;17.49;65.20;93731.16;5086034;28;20037;-80
2021/09/21 11:16:13;;;;;;;2.85;1.88;;;;;;;18.00;66.81;93730.22;5070562;28;20048;-82
2021/09/21 11:18:42;;;;;;;2.67;1.70;;;;;;;17.51;62.63;93736.13;5070798;28;20048;-81
2021/09/21 11:21:12;;;;;;;2.92;1.80;;;;;;;17.26;64.62;93734.72;5083570;28;20080;-80
2021/09/21 11:23:41;;;;;;;3.78;1.48;;;;;;;17.50;67.43;93711.94;5090869;28;20044;-80
2021/09/21 11:26:10;;;;;;;3.00;1.58;;;;;;;16.65;65.04;93736.13;5107773;28;20057;-80
2021/09/21 11:28:42;;;;;;;2.78;1.65;;;;;;;16.36;67.19;93736.16;5111030;28;20469;-80
2021/09/21 11:31:11;;;;;;;2.78;1.92;;;;;;;16.58;69.26;93726.91;5110895;28;20055;-80
2021/09/21 11:33:40;;;;;;;2.65;1.83;;;;;;;16.64;67.73;93724.19;5106233;28;20447;-80
2021/09/21 11:36:08;;;;;;;2.28;1.58;;;;;;;16.78;66.11;93696.13;5090390;28;20504;-79
2021/09/21 11:38:39;;;;;;;3.25;1.33;;;;;;;17.36;66.67;93718.53;5090439;28;20113;-81
2021/09/21 11:41:06;;;;;;;4.65;2.00;;;;;;;17.62;64.77;93701.47;5090546;28;20048;-81
2021/09/21 11:43:33;;;;;;;2.78;1.52;;;;;;;17.60;64.52;93726.09;5090216;28;20048;-80
2021/09/21 11:46:00;;;;;;;2.83;1.60;;;;;;;17.20;64.87;93694.16;5090252;28;20040;-79
2021/09/21 11:48:29;;;;;;;3.33;2.25;;;;;;;17.39;66.23;93731.00;5089690;28;20067;-81
2021/09/21 11:50:56;;;;;;;4.93;2.15;;;;;;;17.04;65.73;93730.25;5089858;28;20504;-79